Decoded Metar for LFKS (SOLENZARA in CORSE ISL.) (IATA:SOZ) | Meteo·Mobile Aviation Weather
aviador You're here:

LFKS Decoded Metar

SOLENZARA in CORSE ISL.
Report Time2018-11-12 22:30:00
UTC Time2018-11-12 22:39:38
Flight Rules vfr VFR
Wind270° at 04 kt
W.Decomp.*RWY 18: 0.1 kt HW 4.0 kt RCW
W.Rank270° ranks 2
Current wind is below 270° avg. (5.6)
Visibility9999 m
Phenomena:N/A
Clouds:Few 013 Hf
Expected CloudBase > 1,200 ft AGL from Temp-Dew spread
CeilingNone
Temp14°C (ISA -1)
Dew Point11°C (82% RH)
AAT12.9°C
QNH1026 hPa
Density Alt-292 ft
Elevation72 ft
Report Wrong Elevation
Raw Report
METAR LFKS 122230Z AUTO 27004KT 9999 FEW013 14/11 Q1026=

Extra information for LFKS:More info

Metar Taf Metar & Taf Last 4 Metars F.Rules Stats Wind Profile Meteogram Temp Stats Airport Information Weather charts Add Link Nearby VenuesMetar ALERT Operation Metar Decoded Social comments